Time;durP1;ratioP1;P1;durP2;ratioP2;P2;SDS_P1;SDS_P2;PMS_P1;PMS_P2;Temp;Humidity;BMP_temperature;BMP_pressure;BME280_temperature;BME280_humidity;BME280_pressure;Samples;Min_cycle;Max_cycle;Signal;HPM_P1;HPM_P2
2022/07/09 00:01:17;;;;;;;8.98;6.45;;;;;;;18.92;74.34;102878.13;6277678;22;20003;-77
2022/07/09 00:03:42;;;;;;;9.02;6.45;;;;;;;18.99;74.21;102879.22;6252929;22;20061;-77
2022/07/09 00:06:08;;;;;;;8.07;6.53;;;;;;;18.87;74.50;102873.66;6306146;22;20074;-78
2022/07/09 00:08:33;;;;;;;9.07;6.13;;;;;;;18.85;74.87;102868.41;6281913;22;20012;-78
2022/07/09 00:10:59;;;;;;;8.23;6.22;;;;;;;18.92;74.36;102872.03;6279155;22;20018;-77
2022/07/09 00:13:24;;;;;;;10.05;6.28;;;;;;;18.91;74.30;102880.72;6307543;22;20034;-78
2022/07/09 00:15:50;;;;;;;8.50;6.45;;;;;;;18.88;74.54;102875.44;6307137;22;20429;-78
2022/07/09 00:18:15;;;;;;;8.95;6.13;;;;;;;18.77;75.02;102876.88;6307621;22;20023;-78
2022/07/09 00:20:41;;;;;;;10.00;5.80;;;;;;;18.77;74.83;102882.09;6305422;22;19999;-78
2022/07/09 00:23:07;;;;;;;11.65;6.20;;;;;;;18.72;75.08;102882.84;6308978;22;20022;-78
2022/07/09 00:25:32;;;;;;;10.63;6.28;;;;;;;18.70;75.02;102876.72;6279200;22;20121;-79
2022/07/09 00:27:57;;;;;;;9.27;6.45;;;;;;;18.65;74.93;102883.50;6305031;22;20007;-78
2022/07/09 00:30:23;;;;;;;8.02;6.20;;;;;;;18.62;75.20;102875.56;6279835;22;20033;-77
2022/07/09 00:32:48;;;;;;;9.73;6.43;;;;;;;18.65;75.00;102880.88;6283522;22;20072;-78
2022/07/09 00:35:14;;;;;;;8.60;6.15;;;;;;;18.62;75.39;102882.50;6283038;22;20068;-78
2022/07/09 00:37:39;;;;;;;7.82;5.82;;;;;;;18.60;75.26;102871.19;6311515;22;20011;-78
2022/07/09 00:40:06;;;;;;;9.05;6.18;;;;;;;18.58;75.40;102872.88;6312330;22;20002;-77
2022/07/09 00:42:32;;;;;;;9.07;6.10;;;;;;;18.51;75.37;102873.56;6256671;22;20089;-78
2022/07/09 00:44:57;;;;;;;10.48;6.32;;;;;;;18.42;75.75;102876.78;6281310;22;20041;-77
2022/07/09 00:47:23;;;;;;;8.70;6.38;;;;;;;18.37;75.96;102875.75;6304800;22;20090;-78
2022/07/09 00:49:49;;;;;;;10.02;6.50;;;;;;;18.38;75.77;102870.63;6278198;22;20307;-78
2022/07/09 00:52:17;;;;;;;11.00;6.75;;;;;;;18.36;76.28;102871.38;6302441;22;20041;-77
2022/07/09 00:54:44;;;;;;;10.18;6.65;;;;;;;18.29;76.73;102867.72;6278168;22;20070;-78
2022/07/09 00:57:10;;;;;;;9.65;6.90;;;;;;;18.34;76.56;102873.09;6306030;22;20014;-78
2022/07/09 00:59:36;;;;;;;11.35;6.38;;;;;;;18.23;76.58;102868.44;6305551;22;20003;-77
2022/07/09 01:02:02;;;;;;;9.57;6.45;;;;;;;18.23;76.55;102868.44;6303973;22;20003;-78
2022/07/09 01:04:28;;;;;;;8.20;6.72;;;;;;;18.23;76.64;102867.56;6304661;22;20011;-78
2022/07/09 01:06:54;;;;;;;9.10;6.78;;;;;;;18.24;76.71;102869.31;6304589;22;20041;-78
2022/07/09 01:09:19;;;;;;;10.55;7.05;;;;;;;18.14;76.94;102863.00;6305832;22;20333;-77
2022/07/09 01:11:46;;;;;;;11.32;7.68;;;;;;;18.11;77.45;102862.88;6305378;22;20038;-77
2022/07/09 01:14:12;;;;;;;11.10;7.85;;;;;;;18.14;77.27;102862.06;6303537;22;19999;-78
2022/07/09 01:16:37;;;;;;;12.95;7.40;;;;;;;18.16;76.52;102860.41;6304133;22;20403;-78
2022/07/09 01:19:04;;;;;;;11.43;9.30;;;;;;;18.07;77.03;102855.81;6278235;22;20338;-78
2022/07/09 01:21:29;;;;;;;12.90;9.30;;;;;;;18.05;76.82;102849.69;6304656;22;20026;-77
2022/07/09 01:23:56;;;;;;;13.32;9.45;;;;;;;17.94;77.09;102848.50;6304875;22;20710;-78
2022/07/09 01:26:22;;;;;;;15.13;9.05;;;;;;;17.95;77.35;102852.84;6277633;22;20007;-77
2022/07/09 01:28:48;;;;;;;10.93;8.07;;;;;;;17.95;77.34;102845.03;6276135;22;20019;-78
2022/07/09 01:31:14;;;;;;;10.05;8.25;;;;;;;17.95;77.31;102847.66;6306181;22;20789;-77
2022/07/09 01:33:40;;;;;;;10.10;7.55;;;;;;;17.84;77.63;102843.88;6277373;22;20011;-78
2022/07/09 01:36:06;;;;;;;14.43;8.43;;;;;;;17.89;77.45;102844.88;6278083;22;20489;-78
2022/07/09 01:38:32;;;;;;;12.50;9.95;;;;;;;17.81;77.96;102841.16;6278769;22;20027;-77
2022/07/09 01:40:57;;;;;;;13.30;9.45;;;;;;;17.88;78.04;102840.50;6251635;22;20477;-78
2022/07/09 01:43:23;;;;;;;11.55;8.90;;;;;;;17.88;78.31;102835.31;6305040;22;20014;-78
2022/07/09 01:45:48;;;;;;;10.48;8.27;;;;;;;17.86;78.26;102832.66;6277717;22;20000;-78
2022/07/09 01:48:14;;;;;;;12.10;8.90;;;;;;;17.84;78.47;102830.88;6278837;22;20011;-78
2022/07/09 01:50:39;;;;;;;12.15;8.52;;;;;;;17.84;78.32;102829.16;6306493;22;19988;-78
2022/07/09 01:53:05;;;;;;;11.85;9.38;;;;;;;17.86;78.71;102826.56;6305975;22;20010;-78
2022/07/09 01:55:30;;;;;;;13.85;9.98;;;;;;;17.86;79.19;102831.78;6306605;22;20023;-77
2022/07/09 01:57:55;;;;;;;14.00;10.45;;;;;;;17.84;79.19;102836.06;6276031;22;20011;-78
2022/07/09 02:00:21;;;;;;;13.13;9.80;;;;;;;17.85;78.65;102825.69;6277932;22;20406;-78
2022/07/09 02:02:47;;;;;;;14.88;9.93;;;;;;;17.76;79.04;102832.34;6305701;22;20019;-78
2022/07/09 02:05:12;;;;;;;13.40;9.77;;;;;;;17.72;79.06;102823.56;6304397;22;20007;-77
2022/07/09 02:07:38;;;;;;;12.88;9.85;;;;;;;17.76;78.76;102821.94;6304272;22;20003;-78
2022/07/09 02:10:04;;;;;;;12.77;10.20;;;;;;;17.65;79.58;102822.47;6278038;22;20503;-78
2022/07/09 02:12:30;;;;;;;11.95;9.77;;;;;;;17.66;79.43;102826.84;6304987;22;20619;-78
2022/07/09 02:14:55;;;;;;;13.48;9.50;;;;;;;17.61;78.64;102828.41;6304286;22;20008;-77
2022/07/09 02:17:21;;;;;;;11.02;9.73;;;;;;;17.62;78.90;102824.09;6304094;22;20038;-78
2022/07/09 02:19:46;;;;;;;15.55;9.52;;;;;;;17.55;78.74;102819.53;6276532;22;20495;-78
2022/07/09 02:22:11;;;;;;;12.93;9.73;;;;;;;17.53;78.93;102826.41;6277199;22;20007;-78
2022/07/09 02:24:37;;;;;;;10.25;9.13;;;;;;;17.53;78.50;102823.81;6305317;22;20434;-78
2022/07/09 02:27:05;;;;;;;14.02;10.13;;;;;;;17.60;78.43;102823.19;6304673;22;20007;-77
2022/07/09 02:29:31;;;;;;;12.02;9.55;;;;;;;17.53;78.73;102816.88;6281629;22;20148;-78
2022/07/09 02:31:57;;;;;;;14.57;10.40;;;;;;;17.57;78.54;102815.25;6278675;22;20059;-78
2022/07/09 02:34:24;;;;;;;13.88;10.20;;;;;;;17.46;78.67;102814.94;6278369;22;20011;-78
2022/07/09 02:36:49;;;;;;;11.00;9.77;;;;;;;17.52;78.13;102807.31;6280168;22;20010;-78
2022/07/09 02:39:15;;;;;;;12.35;10.07;;;;;;;17.41;78.81;102799.22;6277887;22;20008;-77
2022/07/09 02:41:40;;;;;;;11.73;10.30;;;;;;;17.41;78.82;102803.50;6305303;22;20007;-78
2022/07/09 02:44:05;;;;;;;11.43;9.85;;;;;;;17.37;78.99;102806.84;6278861;22;20419;-78
2022/07/09 02:46:31;;;;;;;11.43;9.50;;;;;;;17.33;79.14;102805.88;6305774;22;20076;-78
2022/07/09 02:48:56;;;;;;;14.93;9.93;;;;;;;17.31;78.92;102794.56;6303154;22;20419;-78
2022/07/09 02:51:22;;;;;;;13.60;9.50;;;;;;;17.31;78.81;102799.75;6278200;22;20070;-78
2022/07/09 02:53:47;;;;;;;12.30;9.70;;;;;;;17.26;78.98;102784.84;6279687;22;20018;-77
2022/07/09 02:56:12;;;;;;;14.38;9.82;;;;;;;17.30;78.63;102792.78;6305483;22;20003;-78
2022/07/09 02:58:38;;;;;;;12.95;10.05;;;;;;;17.29;78.89;102795.31;6305124;22;20007;-76
2022/07/09 03:01:06;;;;;;;11.32;9.02;;;;;;;17.24;78.65;102799.53;6304872;22;20018;-78
2022/07/09 03:03:35;;;;;;;14.02;9.68;;;;;;;17.14;78.67;102788.81;6279632;22;20074;-78
2022/07/09 03:06:01;;;;;;;11.95;9.38;;;;;;;17.15;78.59;102790.56;6304625;22;20015;-78
2022/07/09 03:08:27;;;;;;;11.95;9.98;;;;;;;17.10;79.10;102789.53;6306599;22;20008;-78
2022/07/09 03:10:52;;;;;;;16.05;9.93;;;;;;;17.08;78.94;102791.22;6306266;22;20381;-77
2022/07/09 03:13:17;;;;;;;14.75;9.82;;;;;;;17.03;79.21;102794.50;6278997;22;20014;-77
2022/07/09 03:15:43;;;;;;;11.25;9.93;;;;;;;17.00;79.13;102786.63;6307592;22;20007;-77
2022/07/09 03:18:08;;;;;;;11.88;9.52;;;;;;;16.96;79.08;102792.53;6307014;22;20470;-78
2022/07/09 03:20:35;;;;;;;12.13;9.32;;;;;;;17.05;79.05;102791.13;6306167;22;20089;-78
2022/07/09 03:23:01;;;;;;;13.45;9.10;;;;;;;17.06;78.56;102795.50;6307324;22;20319;-77
2022/07/09 03:25:27;;;;;;;11.32;9.10;;;;;;;17.09;78.59;102792.97;6305772;22;20094;-77
2022/07/09 03:27:52;;;;;;;11.27;9.25;;;;;;;16.97;79.16;102797.78;6306075;22;20107;-78
2022/07/09 03:30:18;;;;;;;10.90;9.55;;;;;;;17.00;79.04;102797.03;6277503;22;20381;-77
2022/07/09 03:32:44;;;;;;;12.25;9.98;;;;;;;16.93;79.42;102797.63;6306931;22;20042;-78
2022/07/09 03:35:10;;;;;;;14.73;10.50;;;;;;;16.96;79.96;102795.16;6277886;22;19999;-77
2022/07/09 03:37:35;;;;;;;18.20;11.52;;;;;;;16.97;80.37;102797.78;6307084;22;20015;-79
2022/07/09 03:40:02;;;;;;;13.30;10.50;;;;;;;16.94;80.11;102789.03;6276466;22;20441;-78
2022/07/09 03:42:27;;;;;;;12.90;10.55;;;;;;;16.83;80.27;102781.75;6305732;22;20003;-78
2022/07/09 03:44:53;;;;;;;12.40;9.93;;;;;;;16.82;79.56;102790.38;6307527;22;20010;-76
2022/07/09 03:47:18;;;;;;;15.40;10.25;;;;;;;16.82;79.66;102787.78;6252391;22;20011;-77
2022/07/09 03:49:44;;;;;;;14.15;10.38;;;;;;;16.81;79.76;102792.94;6278397;22;20090;-78
2022/07/09 03:52:09;;;;;;;10.93;9.52;;;;;;;16.76;80.11;102787.59;6278321;22;20045;-78
2022/07/09 03:54:34;;;;;;;12.38;10.10;;;;;;;16.81;80.19;102793.81;6306595;22;20430;-78
2022/07/09 03:57:00;;;;;;;12.70;10.38;;;;;;;16.80;79.83;102792.03;6305776;22;20423;-77
2022/07/09 03:59:25;;;;;;;12.88;9.75;;;;;;;16.77;79.52;102791.06;6254244;22;20011;-78
2022/07/09 04:01:51;;;;;;;11.40;9.48;;;;;;;16.83;79.52;102788.66;6280080;22;20007;-76
2022/07/09 04:04:16;;;;;;;12.10;10.20;;;;;;;16.83;79.72;102793.88;6305384;22;20017;-78
2022/07/09 04:06:41;;;;;;;12.95;10.35;;;;;;;16.81;80.05;102795.53;6277681;22;20057;-76
2022/07/09 04:09:07;;;;;;;10.35;9.27;;;;;;;16.76;79.81;102786.72;6277523;22;20034;-79
2022/07/09 04:11:33;;;;;;;12.52;9.80;;;;;;;16.68;79.80;102786.41;6305923;22;20011;-78
2022/07/09 04:14:02;;;;;;;15.23;10.10;;;;;;;16.65;79.82;102772.44;6306024;22;20079;-78
2022/07/09 04:16:28;;;;;;;12.98;10.50;;;;;;;16.57;80.27;102772.19;6307488;22;20004;-78
2022/07/09 04:18:54;;;;;;;12.80;11.10;;;;;;;16.60;80.51;102777.47;6305220;22;20003;-78
2022/07/09 04:21:21;;;;;;;14.07;10.95;;;;;;;16.61;80.37;102780.13;6305523;22;20307;-78
2022/07/09 04:23:50;;;;;;;14.13;11.07;;;;;;;16.58;80.98;102774.84;6306112;22;20497;-78
2022/07/09 04:26:16;;;;;;;;;;;;;;;16.88;78.99;102781.91;6278220;22;20021;-78
2022/07/09 04:28:42;;;;;;;14.77;12.15;;;;;;;16.63;81.36;102775.88;6306687;22;19942;-78
2022/07/09 04:31:08;;;;;;;16.65;11.68;;;;;;;16.63;81.06;102773.28;6304878;22;20124;-78
2022/07/09 04:33:33;;;;;;;17.65;12.13;;;;;;;16.67;81.04;102773.34;6306321;22;20006;-79
2022/07/09 04:35:59;;;;;;;15.40;12.38;;;;;;;16.62;81.42;102766.31;6277694;22;20016;-78
2022/07/09 04:38:24;;;;;;;16.98;12.25;;;;;;;16.60;82.08;102770.56;6277863;22;20023;-76
2022/07/09 04:40:50;;;;;;;15.52;11.93;;;;;;;16.67;82.36;102779.44;6306192;22;20014;-79
2022/07/09 04:43:16;;;;;;;17.92;12.63;;;;;;;16.69;82.26;102782.09;6277901;22;20559;-79
2022/07/09 04:45:41;;;;;;;16.92;12.52;;;;;;;16.73;82.45;102784.00;6305392;22;20004;-78
2022/07/09 04:48:06;;;;;;;18.45;14.48;;;;;;;16.79;83.69;102786.78;6277905;22;19984;-79
2022/07/09 04:50:32;;;;;;;19.17;15.98;;;;;;;16.81;84.33;102785.16;6306141;22;20003;-79
2022/07/09 04:52:57;;;;;;;20.17;16.52;;;;;;;16.86;84.61;102784.44;6275453;22;20007;-78
2022/07/09 04:55:23;;;;;;;22.67;17.88;;;;;;;16.89;84.54;102770.69;6303882;22;20072;-78
2022/07/09 04:57:48;;;;;;;24.45;18.40;;;;;;;16.91;84.86;102768.13;6304682;22;20009;-78
2022/07/09 05:00:15;;;;;;;23.73;18.02;;;;;;;16.91;85.12;102769.00;6305988;22;20011;-78
2022/07/09 05:02:42;;;;;;;23.23;19.23;;;;;;;17.01;85.03;102770.19;6306036;22;20007;-79
2022/07/09 05:05:08;;;;;;;23.88;19.23;;;;;;;17.00;85.24;102764.13;6303652;22;20011;-78
2022/07/09 05:07:34;;;;;;;23.38;18.45;;;;;;;17.06;85.06;102764.31;6305820;22;20003;-78
2022/07/09 05:10:02;;;;;;;21.90;17.80;;;;;;;17.11;85.27;102770.53;6305149;22;20003;-78
2022/07/09 05:12:31;;;;;;;26.33;18.17;;;;;;;17.14;84.92;102768.03;6303728;22;20333;-80
2022/07/09 05:14:57;;;;;;;22.20;17.42;;;;;;;17.20;84.60;102775.13;6306614;22;20404;-77
2022/07/09 05:17:23;;;;;;;22.38;18.05;;;;;;;17.15;85.40;102769.78;6302597;22;20007;-79
2022/07/09 05:19:49;;;;;;;24.27;19.00;;;;;;;17.20;85.16;102761.25;6306532;22;19995;-79
2022/07/09 05:22:15;;;;;;;28.80;18.90;;;;;;;17.22;85.20;102764.78;6276338;22;20449;-79
2022/07/09 05:24:40;;;;;;;26.42;19.83;;;;;;;17.25;85.30;102765.75;6304918;22;20061;-79
2022/07/09 05:27:06;;;;;;;24.10;19.45;;;;;;;17.22;85.25;102760.44;6303375;22;20007;-79
2022/07/09 05:29:32;;;;;;;25.00;20.30;;;;;;;17.24;85.05;102769.19;6305307;22;20446;-77
2022/07/09 05:31:58;;;;;;;24.02;19.42;;;;;;;17.27;84.99;102766.69;6304999;22;20025;-79
2022/07/09 05:34:24;;;;;;;24.13;19.42;;;;;;;17.31;84.58;102759.88;6304136;22;20029;-79
2022/07/09 05:36:54;;;;;;;25.10;19.45;;;;;;;17.34;85.30;102765.16;6277301;22;20023;-79
2022/07/09 05:39:20;;;;;;;23.42;19.08;;;;;;;17.35;85.54;102766.91;6275912;22;20457;-79
2022/07/09 05:41:45;;;;;;;22.30;18.88;;;;;;;17.36;85.44;102766.09;6303783;22;20003;-79
2022/07/09 05:44:11;;;;;;;23.83;18.48;;;;;;;17.42;85.18;102764.56;6304999;22;20007;-77
2022/07/09 05:46:36;;;;;;;24.00;18.52;;;;;;;17.44;85.56;102762.00;6277639;22;20007;-79
2022/07/09 05:49:02;;;;;;;23.10;17.88;;;;;;;17.48;85.77;102756.06;6303606;22;20003;-79
2022/07/09 05:51:28;;;;;;;23.42;19.35;;;;;;;17.54;85.60;102755.38;6304062;22;20433;-79
2022/07/09 05:53:54;;;;;;;24.65;19.63;;;;;;;17.61;85.78;102755.59;6304464;22;20007;-79
2022/07/09 05:56:20;;;;;;;25.35;21.25;;;;;;;17.63;85.84;102751.28;6277659;22;20003;-77
2022/07/09 05:58:45;;;;;;;27.67;21.35;;;;;;;17.70;84.85;102748.03;6276922;22;20490;-79
2022/07/09 06:01:12;;;;;;;30.05;22.10;;;;;;;17.79;84.93;102755.25;6279544;22;20018;-79
2022/07/09 06:03:38;;;;;;;27.88;21.17;;;;;;;17.82;84.71;102752.72;6228014;22;20007;-79
2022/07/09 06:06:04;;;;;;;26.40;22.42;;;;;;;17.88;85.26;102752.91;6280361;22;20068;-79
2022/07/09 06:08:31;;;;;;;30.60;21.13;;;;;;;17.97;84.75;102767.91;6278548;22;20018;-79
2022/07/09 06:10:57;;;;;;;27.70;21.67;;;;;;;17.96;84.32;102763.56;6306716;22;20011;-79
2022/07/09 06:13:23;;;;;;;28.27;20.77;;;;;;;17.99;84.36;102773.16;6306980;22;20010;-79
2022/07/09 06:15:48;;;;;;;26.75;21.77;;;;;;;18.00;84.53;102767.97;6306882;22;20161;-79
2022/07/09 06:18:14;;;;;;;31.17;22.70;;;;;;;18.03;84.79;102780.22;6278706;22;20007;-77
2022/07/09 06:20:39;;;;;;;27.83;21.88;;;;;;;18.05;84.26;102778.53;6279476;22;20334;-79
2022/07/09 06:23:05;;;;;;;31.15;22.40;;;;;;;18.06;84.13;102775.97;6277975;22;20053;-78
2022/07/09 06:25:31;;;;;;;28.88;22.65;;;;;;;18.10;84.29;102779.53;6278523;22;20419;-79
2022/07/09 06:27:57;;;;;;;26.35;22.40;;;;;;;18.13;84.88;102782.22;6276975;22;20007;-79
2022/07/09 06:30:25;;;;;;;29.23;23.30;;;;;;;18.18;85.24;102775.41;6305993;22;20019;-78
2022/07/09 06:32:51;;;;;;;29.25;23.92;;;;;;;18.23;84.23;102773.81;6279652;22;20040;-79
2022/07/09 06:35:18;;;;;;;29.05;22.70;;;;;;;18.29;84.92;102779.19;6306410;22;20078;-78
2022/07/09 06:37:43;;;;;;;28.50;23.80;;;;;;;18.32;84.81;102779.28;6308414;22;20003;-78
2022/07/09 06:40:09;;;;;;;30.38;22.88;;;;;;;18.35;84.55;102773.25;6308639;22;20329;-79
2022/07/09 06:42:34;;;;;;;27.83;23.52;;;;;;;18.36;84.47;102772.41;6254033;22;20454;-78
2022/07/09 06:45:00;;;;;;;29.77;23.25;;;;;;;18.35;84.22;102762.84;6255307;22;20011;-78
2022/07/09 06:47:25;;;;;;;27.73;22.38;;;;;;;18.41;84.36;102771.69;6308816;22;20014;-79
2022/07/09 06:49:51;;;;;;;28.08;22.42;;;;;;;18.51;84.73;102774.56;6307897;22;20003;-78
2022/07/09 06:52:16;;;;;;;27.50;23.27;;;;;;;18.54;83.89;102766.81;6282591;22;20145;-78
2022/07/09 06:54:42;;;;;;;27.02;23.00;;;;;;;18.70;84.09;102764.66;6280822;22;20007;-80
2022/07/09 06:57:09;;;;;;;28.27;22.63;;;;;;;18.86;84.27;102767.63;6280319;22;20018;-79
2022/07/09 06:59:35;;;;;;;26.77;21.83;;;;;;;18.98;83.90;102767.91;6280725;22;20066;-78
2022/07/09 07:02:01;;;;;;;26.20;22.38;;;;;;;19.14;82.70;102769.16;6306666;22;20010;-78
2022/07/09 07:04:26;;;;;;;24.77;21.48;;;;;;;19.15;82.17;102763.97;6307394;22;20011;-77
2022/07/09 07:06:52;;;;;;;29.15;22.08;;;;;;;19.27;82.40;102759.03;6281295;22;20010;-79
2022/07/09 07:09:18;;;;;;;28.55;21.95;;;;;;;19.31;82.11;102769.56;6305592;22;20407;-77
2022/07/09 07:11:45;;;;;;;29.40;22.55;;;;;;;19.32;81.57;102777.41;6280393;22;20007;-79
2022/07/09 07:14:11;;;;;;;27.83;21.38;;;;;;;19.37;82.11;102774.91;6283701;22;20004;-79
2022/07/09 07:16:36;;;;;;;25.83;20.75;;;;;;;19.39;81.97;102771.47;6280547;22;20068;-80
2022/07/09 07:19:02;;;;;;;26.35;19.45;;;;;;;19.54;81.87;102760.50;6281268;22;20030;-80
2022/07/09 07:21:27;;;;;;;22.90;19.02;;;;;;;19.66;81.82;102767.75;6306815;22;20008;-79
2022/07/09 07:23:52;;;;;;;27.98;20.75;;;;;;;19.67;80.50;102767.78;6308949;22;20430;-80
2022/07/09 07:26:18;;;;;;;32.25;20.17;;;;;;;19.70;80.80;102769.56;6307091;22;20395;-80
2022/07/09 07:28:43;;;;;;;23.48;19.92;;;;;;;19.69;80.94;102776.50;6254380;22;20633;-78
2022/07/09 07:31:08;;;;;;;25.17;18.50;;;;;;;19.68;79.97;102779.97;6308087;22;20013;-79
2022/07/09 07:33:34;;;;;;;22.75;18.33;;;;;;;19.72;80.08;102778.31;6279731;22;20007;-79
2022/07/09 07:35:59;;;;;;;25.63;18.63;;;;;;;19.70;80.41;102767.81;6306838;22;20011;-79
2022/07/09 07:38:27;;;;;;;24.15;17.98;;;;;;;19.72;80.11;102775.72;6305172;22;20000;-79
2022/07/09 07:40:53;;;;;;;21.85;16.27;;;;;;;19.70;79.39;102777.38;6276942;22;20012;-78
2022/07/09 07:43:19;;;;;;;19.02;14.45;;;;;;;19.71;79.03;102784.34;6305795;22;20053;-79
2022/07/09 07:45:47;;;;;;;18.70;14.73;;;;;;;19.70;78.99;102786.09;6307092;22;20014;-79
2022/07/09 07:48:13;;;;;;;18.23;15.87;;;;;;;19.67;79.34;102778.22;6306166;22;20023;-79
2022/07/09 07:50:38;;;;;;;19.17;15.85;;;;;;;19.69;79.30;102779.13;6301514;22;20030;-79
2022/07/09 07:53:07;;;;;;;20.90;15.30;;;;;;;19.73;80.30;102783.56;6305551;22;20327;-79
2022/07/09 07:55:33;;;;;;;;;;;;;;;19.84;79.43;102775.97;6305382;22;20007;-80
2022/07/09 07:57:58;;;;;;;17.98;14.90;;;;;;;19.77;79.99;102776.66;6277391;22;19972;-79
2022/07/09 08:00:24;;;;;;;22.90;15.23;;;;;;;19.75;79.19;102768.81;6308019;22;20003;-79
2022/07/09 08:02:49;;;;;;;15.48;13.50;;;;;;;19.78;78.90;102771.50;6307348;22;20011;-78
2022/07/09 08:05:15;;;;;;;17.92;13.63;;;;;;;19.82;79.14;102775.03;6307596;22;20011;-79
2022/07/09 08:07:40;;;;;;;16.83;14.02;;;;;;;19.87;80.63;102767.28;6279315;22;20414;-78
2022/07/09 08:10:06;;;;;;;16.45;12.85;;;;;;;19.96;81.06;102754.41;6305835;22;20003;-78
2022/07/09 08:12:31;;;;;;;16.50;12.88;;;;;;;19.99;79.92;102749.25;6305138;22;20418;-77
2022/07/09 08:14:57;;;;;;;17.73;12.50;;;;;;;20.06;79.49;102743.28;6277799;22;20019;-79
2022/07/09 08:17:22;;;;;;;15.35;11.38;;;;;;;20.14;78.87;102741.69;6303919;22;20047;-77
2022/07/09 08:19:48;;;;;;;15.38;11.77;;;;;;;20.11;77.50;102733.81;6280115;22;20049;-79
2022/07/09 08:22:13;;;;;;;13.88;10.82;;;;;;;20.20;76.82;102731.34;6279024;22;20606;-78
2022/07/09 08:24:39;;;;;;;13.82;10.73;;;;;;;20.25;75.93;102736.66;6255695;22;20065;-78
2022/07/09 08:27:04;;;;;;;16.52;10.40;;;;;;;20.35;76.05;102731.63;6303911;22;20011;-77
2022/07/09 08:29:30;;;;;;;16.13;11.57;;;;;;;20.42;76.27;102729.13;6304529;22;20098;-79
2022/07/09 08:31:55;;;;;;;17.48;11.88;;;;;;;20.52;77.41;102718.03;6304210;22;20014;-76
2022/07/09 08:34:21;;;;;;;18.65;13.95;;;;;;;20.66;77.66;102720.84;6277254;22;20015;-78
2022/07/09 08:36:46;;;;;;;16.00;12.30;;;;;;;20.79;77.28;102718.44;6276942;22;20456;-76
2022/07/09 08:39:12;;;;;;;21.67;13.60;;;;;;;20.79;75.84;102723.66;6305713;22;19999;-78
2022/07/09 08:41:38;;;;;;;17.23;12.77;;;;;;;20.83;74.98;102722.88;6303122;22;20492;-78
2022/07/09 08:44:04;;;;;;;18.90;12.98;;;;;;;20.87;75.90;102722.06;6302791;22;20007;-79
2022/07/09 08:46:31;;;;;;;14.60;10.98;;;;;;;20.88;74.54;102720.31;6307508;22;20007;-78
2022/07/09 08:49:00;;;;;;;16.30;12.07;;;;;;;20.83;73.57;102720.25;6279348;22;20414;-78
2022/07/09 08:51:26;;;;;;;15.38;12.05;;;;;;;20.81;75.29;102714.13;6305114;22;20327;-78
2022/07/09 08:53:54;;;;;;;16.40;13.48;;;;;;;20.76;74.61;102718.41;6305845;22;19999;-78
2022/07/09 08:56:19;;;;;;;18.33;13.80;;;;;;;20.79;75.07;102723.66;6277930;22;20012;-78
2022/07/09 08:58:45;;;;;;;17.73;12.30;;;;;;;20.77;74.43;102724.50;6250883;22;20025;-76
2022/07/09 09:01:17;;;;;;;16.58;12.38;;;;;;;20.76;74.60;102726.25;6305616;22;20003;-78
2022/07/09 09:03:43;;;;;;;17.42;13.02;;;;;;;20.77;73.82;102735.84;6303211;22;20042;-78
2022/07/09 09:06:10;;;;;;;21.25;12.30;;;;;;;20.76;73.50;102734.09;6306533;22;20073;-78
2022/07/09 09:08:41;;;;;;;17.65;12.40;;;;;;;20.75;73.49;102734.97;6303854;22;20020;-75
2022/07/09 09:11:20;;;;;;;14.82;11.02;;;;;;;20.77;73.11;102733.22;6305766;22;20006;-76
2022/07/09 09:13:47;;;;;;;15.82;11.10;;;;;;;20.71;72.42;102727.91;6304114;22;20129;-78
2022/07/09 09:16:16;;;;;;;16.60;11.70;;;;;;;20.71;73.27;102725.28;6306205;22;20018;-78
2022/07/09 09:18:42;;;;;;;14.50;11.32;;;;;;;20.74;73.14;102729.69;6302873;22;20003;-78
2022/07/09 09:21:08;;;;;;;19.88;11.95;;;;;;;20.72;73.22;102718.31;6306345;22;20082;-78
2022/07/09 09:23:46;;;;;;;16.77;12.32;;;;;;;20.74;73.31;102727.94;6279150;22;20003;-79
2022/07/09 09:26:14;;;;;;;17.92;12.00;;;;;;;20.70;73.75;102728.75;6306646;22;20015;-78
2022/07/09 09:28:57;;;;;;;16.80;12.87;;;;;;;20.68;73.84;102720.00;6305915;22;20011;-79
2022/07/09 09:31:28;;;;;;;19.23;12.70;;;;;;;20.71;74.34;102733.13;6305458;22;20253;-79
2022/07/09 09:33:56;;;;;;;17.42;12.35;;;;;;;20.73;74.83;102722.69;6305856;22;20011;-77
2022/07/09 09:36:33;;;;;;;15.83;11.47;;;;;;;20.78;75.43;102726.25;6306137;22;19999;-79
2022/07/09 09:39:10;;;;;;;12.85;11.05;;;;;;;20.79;73.23;102723.66;6305039;22;20255;-77
2022/07/09 09:41:36;;;;;;;13.98;10.55;;;;;;;20.75;72.99;102724.50;6304724;22;20003;-78
2022/07/09 09:44:13;;;;;;;14.77;10.38;;;;;;;20.78;73.12;102718.41;6305269;22;20395;-76
2022/07/09 09:46:40;;;;;;;11.85;9.02;;;;;;;20.80;73.61;102721.94;6306028;22;19999;-77
2022/07/09 09:49:10;;;;;;;13.80;10.00;;;;;;;20.84;73.88;102723.75;6306073;22;20130;-78
2022/07/09 09:52:00;;;;;;;16.67;9.60;;;;;;;20.87;73.67;102711.59;6306814;22;20330;-78
2022/07/09 09:54:26;;;;;;;13.98;9.82;;;;;;;20.93;73.36;102725.59;6288726;22;20006;-78
2022/07/09 09:56:53;;;;;;;17.15;9.75;;;;;;;20.97;73.06;102722.19;6305267;22;20003;-77
2022/07/09 09:59:19;;;;;;;14.13;9.20;;;;;;;20.99;72.27;102717.84;6304958;22;20074;-78
2022/07/09 10:01:46;;;;;;;16.92;9.65;;;;;;;20.97;72.75;102715.22;6306215;22;20007;-77
2022/07/09 10:04:13;;;;;;;12.05;9.70;;;;;;;20.98;72.38;102716.09;6276953;22;19999;-77
2022/07/09 10:06:40;;;;;;;13.60;9.77;;;;;;;20.96;73.11;102717.81;6279489;22;20090;-76
2022/07/09 10:09:11;;;;;;;14.07;9.77;;;;;;;20.98;72.91;102718.72;6305487;22;20011;-78
2022/07/09 10:11:47;;;;;;;11.90;8.02;;;;;;;21.01;72.57;102727.50;6308812;22;20092;-78
2022/07/09 10:14:52;;;;;;;12.55;8.05;;;;;;;20.99;72.19;102718.75;6305996;22;20056;-77
2022/07/09 10:17:18;;;;;;;11.73;8.48;;;;;;;20.94;72.75;102717.81;6305690;22;20060;-78
2022/07/09 10:19:57;;;;;;;14.80;8.70;;;;;;;20.95;72.84;102711.72;6277835;22;20003;-75
2022/07/09 10:22:43;;;;;;;13.50;8.30;;;;;;;20.94;73.10;102703.84;6306021;22;20007;-77
2022/07/09 10:25:11;;;;;;;14.10;8.70;;;;;;;20.93;72.88;102712.53;6304771;22;20070;-78
2022/07/09 10:27:48;;;;;;;14.18;8.50;;;;;;;21.00;73.78;102706.56;6278062;22;20039;-77
2022/07/09 10:30:30;;;;;;;13.43;8.48;;;;;;;21.05;73.89;102713.63;6306273;22;20008;-77
2022/07/09 10:33:10;;;;;;;15.90;7.10;;;;;;;21.13;73.54;102717.19;6309575;22;20010;-78
2022/07/09 10:35:41;;;;;;;9.95;6.82;;;;;;;21.22;73.89;102695.50;6307891;22;20025;-77
2022/07/09 10:38:06;;;;;;;9.80;7.50;;;;;;;21.33;73.95;102699.19;6306974;22;20051;-78
2022/07/09 10:40:38;;;;;;;9.52;5.57;;;;;;;21.41;73.82;102702.75;6303824;22;20022;-76
2022/07/09 10:43:04;;;;;;;7.45;4.10;;;;;;;21.49;70.17;102696.75;6306483;22;20074;-76
2022/07/09 10:45:39;;;;;;;5.45;3.53;;;;;;;21.58;69.38;102702.09;6307841;22;20004;-78
2022/07/09 10:48:06;;;;;;;5.50;3.40;;;;;;;21.75;68.89;102711.03;6307307;22;20406;-79
2022/07/09 10:50:40;;;;;;;5.95;3.33;;;;;;;21.88;69.10;102707.66;6306969;22;20023;-78
2022/07/09 10:53:06;;;;;;;4.32;2.72;;;;;;;21.93;67.61;102707.72;6307240;22;20003;-78
2022/07/09 10:55:32;;;;;;;7.72;3.25;;;;;;;22.01;67.74;102705.16;6307936;22;20516;-77
2022/07/09 10:57:57;;;;;;;5.85;3.10;;;;;;;22.03;67.21;102709.56;6308711;22;20007;-75
2022/07/09 11:00:25;;;;;;;8.55;3.60;;;;;;;22.03;66.63;102706.97;6308086;22;20649;-79
2022/07/09 11:03:04;;;;;;;4.38;2.63;;;;;;;22.06;66.80;102703.47;6282184;22;20007;-79
2022/07/09 11:05:31;;;;;;;;;;;;;;;22.11;67.00;102707.06;6308327;22;20007;-77
2022/07/09 11:08:03;;;;;;;6.05;2.40;;;;;;;21.98;66.61;102702.53;6306037;22;19903;-78
2022/07/09 11:10:29;;;;;;;3.13;2.15;;;;;;;21.93;65.90;102707.72;6309195;22;20003;-77
2022/07/09 11:12:58;;;;;;;3.53;1.90;;;;;;;21.88;65.51;102714.66;6281710;22;20087;-76